Etusivu
METAR-TAF:

METAR-TAF

Lentoasemat :

Red Wing Regional Airport

Red Wing, Minnesota, Yhdysvallat

Leveyspiiri: 44-35-25N, Pituuspiiri: 092-29-10W, korkeus merenpinnasta: 239 m

Tämänhetkinen sää

Tämä raportti tehtiin 15 minuuttia sitten, kello 11.36 UTC
Tuuli 3 kn lännestä/lounaasta
Lämpötila 0°C
Kosteus 100%
Ilmanpaine 1009 hPa
Näkyvyys: 16.1 km
Pilvistä 1000 ft:n korkeudessa

METAR: KRGK 181136Z AUTO 25003KT 10SM OVC010 00/00 A2980 RMK AO2

Aika: 05:51 (11:51 UTC)


TAF: puuttuu

Säähavainnot ja -ennusteet yli 4000 lentoasemalta (METAR- ja TAF-raportit).

Käytössä olevat sääasemat on merkitty karttaan keltaisilla ja punaisilla pisteillä.

Aseta hiiri pisteen päälle nähdäksesi sääaseman nimen.

Klikkaa sitten nähdäksesi säähavainnot ja -ennusteet.

Kartan vaihtaminen: klikkaa mustalla rastilla varustettuja vihreitä pisteitä, niin voit zoomata sisään; viivalla varustettua vihreää pistettä, niin voit zoomata ulos tai vihreitä nuolia, niin pääset viereisille kartoille.


METAR-TAF: